Time;durP1;ratioP1;P1;durP2;ratioP2;P2;SDS_P1;SDS_P2;PMS_P1;PMS_P2;Temp;Humidity;BMP_temperature;BMP_pressure;BME280_temperature;BME280_humidity;BME280_pressure;Samples;Min_cycle;Max_cycle;Signal;HPM_P1;HPM_P2
2022/05/01 00:01:08;;;;;;;27.75;21.13;;;5.20;99.90;;;;;;5070922;28;20491;-48
2022/05/01 00:03:36;;;;;;;30.35;22.98;;;5.10;99.90;;;;;;5055756;28;20586;-54
2022/05/01 00:06:07;;;;;;;30.13;21.10;;;5.10;99.90;;;;;;5053410;28;20048;-51
2022/05/01 00:08:34;;;;;;;26.88;21.70;;;5.10;99.90;;;;;;5066928;28;20079;-51
2022/05/01 00:11:00;;;;;;;29.15;21.67;;;5.10;99.90;;;;;;5063057;28;20079;-43
2022/05/01 00:13:26;;;;;;;23.65;18.80;;;5.10;99.90;;;;;;5064927;28;20044;-50
2022/05/01 00:15:52;;;;;;;22.20;17.67;;;5.00;99.90;;;;;;5060801;28;20715;-50
2022/05/01 00:18:18;;;;;;;15.95;14.35;;;5.00;99.90;;;;;;5057618;28;20098;-47
2022/05/01 00:20:45;;;;;;;19.13;16.45;;;5.00;99.90;;;;;;5065539;28;20106;-49
2022/05/01 00:23:12;;;;;;;18.80;16.52;;;4.90;99.90;;;;;;5065707;28;20478;-49
2022/05/01 00:25:42;;;;;;;19.05;17.00;;;4.80;99.90;;;;;;5065550;28;20052;-45
2022/05/01 00:28:09;;;;;;;18.13;16.13;;;4.80;99.90;;;;;;5051860;28;20048;-49
2022/05/01 00:30:40;;;;;;;17.80;15.95;;;4.70;99.90;;;;;;5049347;28;20167;-50
2022/05/01 00:38:38;;;;;;;20.65;17.23;;;4.70;99.90;;;;;;5062175;28;20048;-48
2022/05/01 00:41:07;;;;;;;21.63;17.55;;;4.60;99.90;;;;;;5062214;28;20640;-49
2022/05/01 00:43:33;;;;;;;16.15;14.43;;;4.60;99.90;;;;;;5060820;28;20060;-49
2022/05/01 00:45:59;;;;;;;12.70;11.35;;;4.50;99.90;;;;;;5062691;28;20055;-49
2022/05/01 00:48:25;;;;;;;10.07;8.68;;;4.50;99.90;;;;;;5058146;28;20045;-45
2022/05/01 00:50:52;;;;;;;9.88;8.32;;;4.30;99.90;;;;;;5061791;28;20608;-49
2022/05/01 00:53:18;;;;;;;6.95;5.90;;;4.20;99.90;;;;;;5060816;28;20127;-46
2022/05/01 00:55:44;;;;;;;5.15;4.15;;;4.10;99.90;;;;;;5062041;28;20055;-47
2022/05/01 00:58:10;;;;;;;5.47;4.78;;;4.00;99.90;;;;;;5055397;28;20052;-48
2022/05/01 01:00:35;;;;;;;5.00;3.97;;;3.90;99.90;;;;;;5044159;28;20044;-49
2022/05/01 01:03:02;;;;;;;7.45;6.10;;;3.90;99.90;;;;;;5053010;28;20132;-49
2022/05/01 01:05:28;;;;;;;9.27;7.40;;;3.80;99.90;;;;;;5057924;28;20127;-50
2022/05/01 01:07:54;;;;;;;10.57;7.05;;;3.80;99.90;;;;;;5061870;28;20056;-49
2022/05/01 01:10:20;;;;;;;6.10;5.50;;;3.70;99.90;;;;;;5062501;28;20043;-46
2022/05/01 01:12:56;;;;;;;5.65;5.15;;;3.70;99.90;;;;;;5056785;28;20136;-49
2022/05/01 01:15:30;;;;;;;7.95;7.05;;;3.70;99.90;;;;;;5064151;28;20078;-48
2022/05/01 01:18:00;;;;;;;8.70;7.68;;;3.70;99.90;;;;;;5062881;28;20090;-49
2022/05/01 01:20:28;;;;;;;7.75;6.38;;;3.70;99.90;;;;;;5048397;28;20101;-47
2022/05/01 01:22:59;;;;;;;5.15;4.65;;;3.60;99.90;;;;;;5052894;28;20048;-48
2022/05/01 01:25:30;;;;;;;5.72;5.13;;;3.50;99.90;;;;;;5056015;28;20080;-49
2022/05/01 01:28:02;;;;;;;5.53;4.75;;;3.40;99.90;;;;;;5055248;28;20106;-48
2022/05/01 01:33:15;;;;;;;7.03;6.22;;;3.20;99.90;;;;;;5053874;28;20127;-48
2022/05/01 01:35:51;;;;;;;8.07;7.28;;;3.10;99.90;;;;;;5055437;28;20052;-47
2022/05/01 01:38:17;;;;;;;7.65;6.95;;;3.10;99.90;;;;;;5061966;28;20132;-50
2022/05/01 01:40:51;;;;;;;7.20;5.45;;;3.10;99.90;;;;;;5061159;28;20064;-43
2022/05/01 01:43:19;;;;;;;7.78;6.15;;;3.00;99.90;;;;;;5060473;28;20048;-49
2022/05/01 01:45:46;;;;;;;6.45;5.82;;;2.90;99.90;;;;;;5059470;28;20295;-48
2022/05/01 01:48:13;;;;;;;6.72;6.03;;;2.90;99.90;;;;;;5056549;28;20542;-47
2022/05/01 01:50:41;;;;;;;6.65;6.05;;;2.80;99.90;;;;;;5061687;28;20052;-46
2022/05/01 01:53:08;;;;;;;8.45;7.55;;;2.80;99.90;;;;;;5060121;28;20048;-47
2022/05/01 01:55:35;;;;;;;8.57;7.78;;;2.70;99.90;;;;;;5060817;28;20048;-46
2022/05/01 01:58:01;;;;;;;7.30;6.50;;;2.80;99.90;;;;;;5041052;28;20479;-46
2022/05/01 02:00:27;;;;;;;9.73;7.35;;;2.80;99.90;;;;;;5054579;28;20202;-48
2022/05/01 02:03:00;;;;;;;8.15;7.35;;;2.80;99.90;;;;;;5054898;28;20072;-47
2022/05/01 02:05:32;;;;;;;8.23;7.43;;;2.80;99.90;;;;;;5049533;28;20461;-47
2022/05/01 02:07:58;;;;;;;9.20;8.30;;;2.80;99.90;;;;;;5049459;28;20048;-47
2022/05/01 02:10:24;;;;;;;8.65;7.80;;;2.80;99.90;;;;;;5060183;28;20048;-47
2022/05/01 02:12:51;;;;;;;7.40;6.70;;;2.80;99.90;;;;;;5049181;28;20111;-48
2022/05/01 02:15:17;;;;;;;7.10;6.40;;;2.80;99.90;;;;;;5059556;28;20070;-49
2022/05/01 02:17:43;;;;;;;6.65;6.05;;;2.70;99.90;;;;;;5054401;28;20056;-42
2022/05/01 02:20:10;;;;;;;11.20;9.10;;;2.70;99.90;;;;;;5060884;28;20051;-47
2022/05/01 02:22:39;;;;;;;9.90;8.90;;;2.70;99.90;;;;;;5060328;28;20106;-49
2022/05/01 02:25:05;;;;;;;9.48;7.90;;;2.60;99.90;;;;;;5062269;28;20049;-46
2022/05/01 02:27:31;;;;;;;7.82;6.90;;;2.60;99.90;;;;;;5053009;28;20542;-49
2022/05/01 02:29:56;;;;;;;6.72;6.13;;;2.60;99.90;;;;;;5060050;28;20048;-54
2022/05/01 02:32:22;;;;;;;12.82;6.65;;;2.50;99.90;;;;;;5061037;28;20384;-49
2022/05/01 02:34:48;;;;;;;16.10;6.78;;;2.60;99.90;;;;;;5060277;28;20462;-48
2022/05/01 02:37:13;;;;;;;49.72;8.43;;;2.60;99.90;;;;;;5057759;28;20827;-43
2022/05/01 02:39:39;;;;;;;6.75;5.88;;;2.60;99.90;;;;;;5056424;28;20056;-47
2022/05/01 02:42:05;;;;;;;42.85;8.07;;;2.50;99.90;;;;;;5060177;28;20198;-49
2022/05/01 02:44:31;;;;;;;56.80;9.43;;;2.60;99.90;;;;;;5059568;28;20052;-44
2022/05/01 02:46:57;;;;;;;11.38;8.90;;;2.50;99.90;;;;;;5057647;28;20097;-48
2022/05/01 02:49:22;;;;;;;18.98;10.00;;;2.50;99.90;;;;;;5059079;28;20052;-49
2022/05/01 02:51:49;;;;;;;24.63;10.20;;;2.50;99.90;;;;;;5059070;28;20079;-48
2022/05/01 02:54:14;;;;;;;27.05;10.65;;;2.40;99.90;;;;;;5059582;28;20056;-48
2022/05/01 02:56:40;;;;;;;13.57;9.90;;;2.40;99.90;;;;;;5059958;28;20090;-49
2022/05/01 02:59:09;;;;;;;26.27;12.27;;;2.30;99.90;;;;;;5059180;28;20059;-48
2022/05/01 03:01:37;;;;;;;14.15;11.50;;;2.20;99.90;;;;;;5058036;28;20071;-48
2022/05/01 03:04:03;;;;;;;12.63;11.32;;;2.20;99.90;;;;;;5059525;28;20045;-49
2022/05/01 03:06:29;;;;;;;13.27;11.85;;;2.10;99.90;;;;;;5058449;28;20426;-49
2022/05/01 03:08:55;;;;;;;12.50;11.20;;;2.20;99.90;;;;;;5059349;28;20040;-45
2022/05/01 03:11:21;;;;;;;14.95;12.57;;;2.20;99.90;;;;;;5058943;28;20054;-42
2022/05/01 03:13:47;;;;;;;12.90;11.20;;;2.20;99.90;;;;;;5058035;28;20124;-47
2022/05/01 03:16:13;;;;;;;18.70;11.98;;;2.20;99.90;;;;;;5060210;28;20398;-47
2022/05/01 03:24:09;;;;;;;13.43;11.07;;;2.20;99.90;;;;;;5059790;28;20185;-49
2022/05/01 03:26:35;;;;;;;12.15;10.68;;;2.20;99.90;;;;;;5058142;28;20448;-46
2022/05/01 03:29:01;;;;;;;12.27;11.07;;;2.20;99.90;;;;;;5048665;28;20067;-46
2022/05/01 03:31:27;;;;;;;12.55;11.18;;;2.20;99.90;;;;;;5059514;28;20925;-45
2022/05/01 03:33:54;;;;;;;16.70;13.77;;;2.20;99.90;;;;;;5060421;28;20045;-49
2022/05/01 03:36:21;;;;;;;25.00;15.38;;;2.20;99.90;;;;;;5061275;28;20055;-47
2022/05/01 03:38:47;;;;;;;18.77;12.23;;;2.20;99.90;;;;;;5064068;28;20110;-47
2022/05/01 03:41:14;;;;;;;13.60;11.70;;;2.20;99.90;;;;;;5059506;28;20102;-47
2022/05/01 03:43:41;;;;;;;14.73;11.80;;;2.20;99.90;;;;;;5057894;28;20423;-47
2022/05/01 03:46:07;;;;;;;14.02;12.40;;;2.10;99.90;;;;;;5059801;28;20044;-51
2022/05/01 03:48:33;;;;;;;14.68;13.18;;;2.10;99.90;;;;;;5056508;28;20094;-48
2022/05/01 03:50:59;;;;;;;15.68;13.85;;;2.10;99.90;;;;;;5059036;28;20454;-50
2022/05/01 03:53:26;;;;;;;14.27;12.77;;;2.00;99.90;;;;;;5055594;28;20052;-45
2022/05/01 03:55:52;;;;;;;12.13;10.93;;;2.00;99.90;;;;;;5058570;28;20040;-46
2022/05/01 03:58:21;;;;;;;13.20;11.82;;;2.00;99.90;;;;;;5055234;28;20055;-50
2022/05/01 04:00:48;;;;;;;13.32;11.50;;;2.00;99.90;;;;;;5058449;28;20138;-50
2022/05/01 04:03:17;;;;;;;14.23;11.57;;;2.00;99.90;;;;;;5055237;28;20052;-47
2022/05/01 04:05:43;;;;;;;12.93;11.52;;;2.00;99.90;;;;;;5060338;28;20446;-47
2022/05/01 04:08:10;;;;;;;11.45;10.25;;;2.00;99.90;;;;;;5058920;28;20048;-46
2022/05/01 04:10:43;;;;;;;27.25;12.20;;;2.00;99.90;;;;;;5062830;28;20055;-48
2022/05/01 04:13:10;;;;;;;61.00;14.40;;;2.10;99.90;;;;;;5061552;28;20048;-48
2022/05/01 04:15:36;;;;;;;83.40;15.13;;;2.10;99.90;;;;;;5063796;28;20507;-47
2022/05/01 04:18:03;;;;;;;38.35;14.05;;;2.10;99.90;;;;;;5061731;28;20055;-49
2022/05/01 04:20:29;;;;;;;56.03;15.27;;;2.10;99.90;;;;;;5062714;28;20049;-47
2022/05/01 04:22:56;;;;;;;78.20;16.35;;;2.10;99.90;;;;;;5060642;28;20083;-46
2022/05/01 04:25:26;;;;;;;67.40;15.45;;;2.10;99.90;;;;;;5058167;28;20044;-45
2022/05/01 04:28:10;;;;;;;213.35;21.23;;;2.10;99.90;;;;;;5062175;28;20581;-47
2022/05/01 04:30:36;;;;;;;120.38;18.70;;;2.10;99.90;;;;;;5062253;28;20044;-48
2022/05/01 04:33:09;;;;;;;125.72;20.05;;;2.10;99.90;;;;;;5057229;28;20063;-49
2022/05/01 04:35:42;;;;;;;81.63;17.27;;;2.20;99.90;;;;;;5062314;28;20097;-48
2022/05/01 04:38:08;;;;;;;60.00;17.77;;;2.30;99.90;;;;;;5058676;28;20391;-45
2022/05/01 04:40:36;;;;;;;51.58;16.63;;;2.40;99.90;;;;;;5062738;28;20756;-48
2022/05/01 04:43:04;;;;;;;46.95;15.65;;;2.40;99.90;;;;;;5062098;28;20123;-47
2022/05/01 04:45:31;;;;;;;45.47;16.55;;;2.50;99.90;;;;;;5056834;28;20063;-48
2022/05/01 04:47:59;;;;;;;94.22;14.60;;;2.60;99.90;;;;;;5065780;28;20049;-48
2022/05/01 04:50:25;;;;;;;55.88;14.05;;;2.70;99.90;;;;;;5055532;28;20401;-48
2022/05/01 04:52:51;;;;;;;31.10;13.35;;;2.80;99.90;;;;;;5060470;28;20143;-46
2022/05/01 04:55:20;;;;;;;89.13;16.85;;;3.00;99.90;;;;;;5060220;28;20123;-47
2022/05/01 04:57:45;;;;;;;51.08;14.88;;;3.10;99.90;;;;;;5058363;28;20479;-43
2022/05/01 05:00:13;;;;;;;19.50;13.02;;;3.30;99.90;;;;;;5061052;28;20056;-49
2022/05/01 05:02:41;;;;;;;42.95;13.07;;;3.70;99.90;;;;;;5061220;28;20048;-49
2022/05/01 05:05:10;;;;;;;41.78;12.85;;;4.10;99.90;;;;;;5061307;28;20063;-49
2022/05/01 05:07:39;;;;;;;32.30;13.05;;;4.60;99.90;;;;;;5057049;28;20052;-49
2022/05/01 05:10:07;;;;;;;43.22;12.65;;;5.10;99.90;;;;;;5054442;28;20074;-48
2022/05/01 05:12:34;;;;;;;26.58;11.13;;;5.60;99.90;;;;;;5056397;28;20404;-48
2022/05/01 05:15:01;;;;;;;14.20;9.98;;;6.10;99.90;;;;;;5048393;28;20048;-49
2022/05/01 05:17:29;;;;;;;11.07;9.35;;;6.70;99.90;;;;;;5060048;28;20053;-51
2022/05/01 05:19:54;;;;;;;10.38;9.48;;;7.40;99.90;;;;;;5057285;28;20059;-50
2022/05/01 05:22:21;;;;;;;9.98;9.18;;;8.10;99.90;;;;;;5060151;28;20045;-49
2022/05/01 05:24:47;;;;;;;8.93;8.23;;;9.00;99.90;;;;;;5058861;28;20388;-51
2022/05/01 05:27:13;;;;;;;8.57;7.88;;;10.00;99.90;;;;;;5060077;28;20496;-50
2022/05/01 05:29:39;;;;;;;7.40;6.80;;;11.00;99.90;;;;;;5060156;28;20063;-53
2022/05/01 05:32:06;;;;;;;7.55;6.95;;;11.80;99.90;;;;;;5058475;28;20065;-51
2022/05/01 05:34:32;;;;;;;7.28;6.68;;;12.70;99.90;;;;;;5061476;28;20087;-51
2022/05/01 05:36:58;;;;;;;7.00;6.40;;;13.50;99.90;;;;;;5057105;28;20131;-51
2022/05/01 05:39:24;;;;;;;7.15;6.55;;;14.10;99.90;;;;;;5060839;28;20090;-52
2022/05/01 05:41:50;;;;;;;7.18;6.63;;;14.70;99.90;;;;;;5056631;28;20052;-51
2022/05/01 05:44:15;;;;;;;7.28;6.68;;;15.20;99.90;;;;;;5061509;28;20067;-50
2022/05/01 05:46:41;;;;;;;7.68;7.07;;;15.80;99.90;;;;;;5060370;28;20546;-51
2022/05/01 05:49:07;;;;;;;14.43;6.80;;;16.30;98.90;;;;;;5053923;28;20157;-53
2022/05/01 05:51:33;;;;;;;6.68;6.03;;;16.50;97.50;;;;;;5057701;28;20053;-51
2022/05/01 05:53:59;;;;;;;12.70;5.75;;;16.50;96.60;;;;;;5061359;28;20047;-54
2022/05/01 05:56:25;;;;;;;5.88;5.28;;;16.40;96.30;;;;;;5060340;28;20530;-50
2022/05/01 05:58:50;;;;;;;4.97;4.40;;;16.40;95.60;;;;;;5064749;28;20447;-51
2022/05/01 06:01:19;;;;;;;3.17;2.97;;;16.50;95.40;;;;;;5062840;28;20052;-45
2022/05/01 06:03:49;;;;;;;3.40;3.13;;;16.80;94.70;;;;;;5060219;28;20048;-62
2022/05/01 06:06:15;;;;;;;5.43;4.05;;;17.20;94.70;;;;;;5055937;28;20061;-53
2022/05/01 06:08:41;;;;;;;3.05;2.78;;;17.70;94.80;;;;;;5060259;28;20582;-54
2022/05/01 06:11:07;;;;;;;2.70;2.40;;;18.30;94.30;;;;;;5054956;28;20136;-51
2022/05/01 06:13:33;;;;;;;2.65;2.40;;;19.00;93.80;;;;;;5055300;28;20052;-51
2022/05/01 06:15:59;;;;;;;3.28;2.40;;;18.80;91.60;;;;;;5061229;28;20040;-51
2022/05/01 06:18:24;;;;;;;2.63;2.42;;;18.80;92.70;;;;;;5058546;28;20049;-53
2022/05/01 06:20:51;;;;;;;3.85;3.55;;;19.10;92.30;;;;;;5056222;28;20506;-51
2022/05/01 06:23:16;;;;;;;4.53;4.22;;;19.90;91.80;;;;;;5059675;28;20051;-52
2022/05/01 06:25:43;;;;;;;4.63;4.22;;;20.50;90.90;;;;;;5053479;28;20057;-55
2022/05/01 06:28:12;;;;;;;4.88;4.47;;;21.20;90.30;;;;;;5053117;28;20359;-52
2022/05/01 06:30:41;;;;;;;4.75;4.13;;;21.70;88.20;;;;;;5060313;28;20048;-52
2022/05/01 06:33:13;;;;;;;5.45;4.95;;;22.00;87.40;;;;;;5060518;28;20132;-51
2022/05/01 06:35:39;;;;;;;5.20;4.80;;;22.40;85.90;;;;;;5060635;28;20055;-56
2022/05/01 06:38:06;;;;;;;5.25;4.85;;;22.50;86.00;;;;;;5054810;28;20137;-54
2022/05/01 06:40:32;;;;;;;5.25;4.85;;;22.40;85.00;;;;;;5060178;28;20057;-46
2022/05/01 06:42:59;;;;;;;5.88;5.38;;;22.00;83.70;;;;;;5063573;28;20052;-50
2022/05/01 06:45:25;;;;;;;8.73;5.15;;;21.80;85.10;;;;;;5062663;28;20383;-49
2022/05/01 06:47:50;;;;;;;7.25;5.10;;;22.10;85.40;;;;;;5058005;28;20097;-52
2022/05/01 06:50:16;;;;;;;6.22;4.65;;;22.40;84.50;;;;;;5046585;28;20087;-53
2022/05/01 06:52:42;;;;;;;4.93;4.53;;;22.60;83.70;;;;;;5053581;28;20135;-51
2022/05/01 06:55:09;;;;;;;5.05;4.55;;;22.60;83.20;;;;;;5057214;28;20044;-48
2022/05/01 06:57:34;;;;;;;5.60;4.80;;;23.00;83.40;;;;;;5063431;28;20683;-53
2022/05/01 07:00:00;;;;;;;6.07;5.22;;;23.10;82.80;;;;;;5056886;28;20052;-48
2022/05/01 07:02:26;;;;;;;6.88;5.82;;;22.70;82.70;;;;;;5053139;28;20059;-51
2022/05/01 07:04:52;;;;;;;6.50;5.93;;;21.60;81.50;;;;;;5061945;28;20041;-51
2022/05/01 07:07:18;;;;;;;8.23;7.53;;;20.70;84.60;;;;;;5056800;28;20064;-52
2022/05/01 07:09:44;;;;;;;7.47;6.72;;;19.80;84.80;;;;;;5054185;28;20071;-53
2022/05/01 07:12:11;;;;;;;7.00;6.40;;;19.80;85.40;;;;;;5060471;28;20190;-54
2022/05/01 07:14:40;;;;;;;8.20;7.40;;;19.80;85.10;;;;;;5061136;28;20048;-50
2022/05/01 07:17:06;;;;;;;6.45;5.50;;;19.70;86.50;;;;;;5060062;28;20049;-54
2022/05/01 07:19:31;;;;;;;6.40;5.80;;;19.30;85.70;;;;;;5060015;28;20088;-54
2022/05/01 07:21:57;;;;;;;6.82;5.57;;;19.10;86.00;;;;;;5055592;28;20044;-53
2022/05/01 07:24:23;;;;;;;6.20;5.65;;;19.00;85.90;;;;;;5068818;28;20045;-53
2022/05/01 07:26:49;;;;;;;6.10;5.50;;;18.70;85.80;;;;;;5055830;28;20052;-48
2022/05/01 07:29:14;;;;;;;6.10;5.50;;;18.40;86.20;;;;;;5055392;28;20064;-53
2022/05/01 07:31:42;;;;;;;7.97;6.22;;;18.10;85.60;;;;;;5055320;28;20533;-53
2022/05/01 07:34:09;;;;;;;8.93;6.43;;;18.10;87.50;;;;;;5055245;28;20109;-52
2022/05/01 07:36:35;;;;;;;7.72;5.45;;;18.30;86.80;;;;;;5058493;28;20083;-52
2022/05/01 07:39:01;;;;;;;6.38;5.45;;;17.50;85.80;;;;;;5061116;28;20087;-52
2022/05/01 07:41:27;;;;;;;6.85;5.95;;;17.50;88.80;;;;;;5062435;28;20056;-52
2022/05/01 07:43:55;;;;;;;4.95;4.47;;;17.60;88.30;;;;;;5063192;28;20056;-54
2022/05/01 07:46:26;;;;;;;7.20;5.85;;;17.60;86.70;;;;;;5057665;28;20612;-54
2022/05/01 07:48:52;;;;;;;6.45;5.65;;;17.30;86.20;;;;;;5059530;28;20527;-50
2022/05/01 07:51:18;;;;;;;6.55;5.72;;;17.10;88.10;;;;;;5058413;28;20062;-52
2022/05/01 07:53:44;;;;;;;6.22;5.07;;;17.10;87.60;;;;;;5065823;28;20472;-54
2022/05/01 07:56:10;;;;;;;6.90;5.32;;;16.90;87.90;;;;;;5062029;28;20094;-48
2022/05/01 07:58:36;;;;;;;5.95;5.13;;;17.10;88.60;;;;;;5060097;28;20084;-52
2022/05/01 08:01:03;;;;;;;7.05;5.50;;;16.90;87.90;;;;;;5058273;28;20044;-51
2022/05/01 08:06:14;;;;;;;7.25;5.65;;;16.00;88.30;;;;;;5059165;28;20045;-53
2022/05/01 08:08:40;;;;;;;7.63;6.68;;;15.90;89.30;;;;;;5058551;28;20063;-51
2022/05/01 08:11:07;;;;;;;6.60;5.78;;;16.10;89.60;;;;;;5056889;28;20128;-51
2022/05/01 08:13:33;;;;;;;6.05;5.38;;;16.00;90.40;;;;;;5061207;28;20060;-53
2022/05/01 08:15:58;;;;;;;6.57;5.90;;;16.20;90.00;;;;;;5058411;28;20059;-52
2022/05/01 08:21:12;;;;;;;6.32;5.72;;;16.40;90.20;;;;;;5053679;28;20499;-50
2022/05/01 08:23:39;;;;;;;7.38;5.90;;;16.60;90.00;;;;;;5053073;28;20048;-53
2022/05/01 08:26:06;;;;;;;7.05;5.93;;;16.70;90.00;;;;;;5062845;28;20045;-50
2022/05/01 08:28:34;;;;;;;6.70;6.07;;;16.80;89.70;;;;;;5066931;28;20060;-53
2022/05/01 08:31:00;;;;;;;8.02;6.97;;;16.90;87.80;;;;;;5063087;28;20056;-47
2022/05/01 08:33:27;;;;;;;8.38;6.78;;;16.70;88.40;;;;;;5064228;28;20066;-55
2022/05/01 08:35:53;;;;;;;12.93;6.93;;;16.40;89.20;;;;;;5061722;28;20059;-52
2022/05/01 08:38:20;;;;;;;8.05;7.32;;;16.40;89.90;;;;;;5062691;28;20415;-50
2022/05/01 08:40:48;;;;;;;8.05;6.55;;;16.10;88.80;;;;;;5061200;28;20139;-53
2022/05/01 08:43:25;;;;;;;7.35;6.57;;;16.10;90.40;;;;;;5061758;28;20054;-50
2022/05/01 08:46:11;;;;;;;7.25;6.53;;;15.90;90.10;;;;;;5062412;28;20352;-52
2022/05/01 08:48:39;;;;;;;7.53;6.20;;;15.60;90.50;;;;;;5051826;28;20045;-49
2022/05/01 08:51:05;;;;;;;6.43;5.55;;;15.60;90.80;;;;;;5059137;28;20453;-51
2022/05/01 08:53:32;;;;;;;6.95;6.10;;;15.50;90.60;;;;;;5045143;28;20060;-49
2022/05/01 08:56:01;;;;;;;7.25;6.00;;;15.40;90.80;;;;;;5056341;28;20048;-55
2022/05/01 08:58:29;;;;;;;6.45;5.82;;;15.40;90.90;;;;;;5061741;28;20370;-50
2022/05/01 09:00:54;;;;;;;8.05;5.95;;;15.50;91.20;;;;;;5062935;28;20673;-54
2022/05/01 09:03:21;;;;;;;7.43;6.68;;;15.70;91.30;;;;;;5063071;28;20113;-50
2022/05/01 09:05:47;;;;;;;10.30;6.68;;;15.80;91.00;;;;;;5062638;28;20044;-51
2022/05/01 09:08:12;;;;;;;7.40;6.25;;;15.60;90.50;;;;;;5059550;28;20403;-51
2022/05/01 09:10:42;;;;;;;7.30;6.50;;;15.50;91.00;;;;;;5054987;28;20048;-51
2022/05/01 09:13:08;;;;;;;6.80;6.15;;;15.80;90.80;;;;;;5061218;28;20060;-49
2022/05/01 09:15:43;;;;;;;6.57;5.95;;;15.80;90.80;;;;;;5062864;28;20044;-51
2022/05/01 09:18:14;;;;;;;6.70;6.05;;;15.90;91.10;;;;;;5062206;28;20041;-53
2022/05/01 09:21:08;;;;;;;6.25;5.38;;;15.90;91.10;;;;;;5059322;28;20418;-49
2022/05/01 09:23:46;;;;;;;8.23;6.45;;;15.70;91.00;;;;;;5055521;28;20044;-55
2022/05/01 09:26:13;;;;;;;6.95;5.78;;;15.50;88.50;;;;;;5057952;28;20048;-54
2022/05/01 09:28:50;;;;;;;6.35;5.15;;;15.50;90.50;;;;;;5057244;28;20487;-53
2022/05/01 09:31:17;;;;;;;7.35;5.82;;;15.60;90.30;;;;;;5056093;28;20634;-55
2022/05/01 09:33:42;;;;;;;6.47;5.28;;;15.70;90.20;;;;;;5063425;28;20382;-53
2022/05/01 09:36:10;;;;;;;7.40;5.88;;;15.60;90.30;;;;;;5064172;28;20074;-53
2022/05/01 09:38:35;;;;;;;8.07;6.13;;;15.60;89.60;;;;;;5064782;28;20052;-52
2022/05/01 09:41:13;;;;;;;8.05;5.50;;;15.70;90.10;;;;;;5061935;28;20556;-55
2022/05/01 09:43:41;;;;;;;6.82;5.80;;;15.90;90.70;;;;;;5064836;28;20818;-52
2022/05/01 09:46:25;;;;;;;7.80;6.20;;;15.90;90.00;;;;;;5067238;28;20076;-55
2022/05/01 09:49:10;;;;;;;7.97;6.55;;;16.10;90.20;;;;;;5061831;28;20132;-51
2022/05/01 09:51:46;;;;;;;7.63;6.15;;;16.00;90.40;;;;;;5061352;28;20523;-54
2022/05/01 09:54:22;;;;;;;6.30;5.70;;;16.20;90.10;;;;;;5061836;28;20052;-49
2022/05/01 09:56:47;;;;;;;8.65;6.60;;;16.20;90.10;;;;;;5062031;28;20047;-52
2022/05/01 09:59:15;;;;;;;7.13;6.05;;;16.10;89.00;;;;;;5062657;28;20048;-52
2022/05/01 10:01:54;;;;;;;8.98;6.18;;;16.40;90.00;;;;;;5057762;28;20044;-54
2022/05/01 10:04:22;;;;;;;7.55;6.22;;;16.60;88.60;;;;;;5056707;28;20574;-55
2022/05/01 10:06:55;;;;;;;8.50;6.75;;;16.90;89.30;;;;;;5056733;28;20487;-54
2022/05/01 10:09:24;;;;;;;7.60;6.95;;;16.80;89.90;;;;;;5053894;28;20060;-44
2022/05/01 10:11:54;;;;;;;8.15;5.75;;;16.70;88.60;;;;;;5058342;28;20453;-52
2022/05/01 10:14:23;;;;;;;8.07;5.95;;;16.60;88.30;;;;;;5061516;28;20052;-54
2022/05/01 10:16:50;;;;;;;8.07;5.90;;;16.30;88.70;;;;;;5058692;28;20078;-54
2022/05/01 10:19:19;;;;;;;10.45;6.53;;;16.20;89.20;;;;;;5057572;28;20466;-54
2022/05/01 10:22:00;;;;;;;6.78;6.07;;;16.30;90.00;;;;;;5041726;28;20628;-53
2022/05/01 10:24:28;;;;;;;8.93;6.50;;;16.30;89.50;;;;;;5031911;28;20578;-52
2022/05/01 10:27:21;;;;;;;6.65;5.95;;;16.10;88.30;;;;;;5061035;28;20098;-54
2022/05/01 10:33:07;;;;;;;9.35;6.05;;;16.10;90.00;;;;;;5059189;28;20572;-53
2022/05/01 10:35:45;;;;;;;8.25;6.60;;;16.20;89.10;;;;;;5057258;28;20521;-50
2022/05/01 10:38:29;;;;;;;7.25;6.53;;;16.20;88.30;;;;;;5061056;28;20634;-52
2022/05/01 10:40:59;;;;;;;7.95;7.13;;;16.30;89.80;;;;;;5050834;28;20048;-49
2022/05/01 10:43:36;;;;;;;7.90;6.30;;;16.20;89.20;;;;;;5037482;28;20052;-54
2022/05/01 10:46:23;;;;;;;6.65;5.93;;;16.20;89.60;;;;;;5040201;28;20087;-53
2022/05/01 10:48:49;;;;;;;12.95;8.60;;;16.20;89.00;;;;;;5058746;28;20059;-52
2022/05/01 10:51:30;;;;;;;8.38;6.68;;;16.00;89.20;;;;;;5053505;28;20435;-46
2022/05/01 10:54:33;;;;;;;7.32;6.10;;;16.10;88.90;;;;;;5056478;28;20455;-54
2022/05/01 10:57:10;;;;;;;8.75;7.50;;;16.10;87.90;;;;;;4989149;28;20064;-55
2022/05/01 10:59:46;;;;;;;7.78;6.95;;;16.10;89.20;;;;;;4982252;28;20473;-53
2022/05/01 11:02:38;;;;;;;8.38;6.05;;;16.10;88.70;;;;;;4987152;28;20057;-53
2022/05/01 11:05:05;;;;;;;7.88;6.45;;;16.10;90.00;;;;;;4989966;28;20090;-52
2022/05/01 11:07:39;;;;;;;8.02;5.95;;;16.10;90.20;;;;;;4991799;28;20204;-52
2022/05/01 11:10:10;;;;;;;7.80;6.25;;;16.30;90.10;;;;;;4979645;28;20074;-52
2022/05/01 11:12:37;;;;;;;7.82;5.97;;;16.50;90.10;;;;;;4997153;28;20069;-52
2022/05/01 11:15:08;;;;;;;7.22;6.53;;;16.50;89.20;;;;;;4998419;28;20048;-49
2022/05/01 11:17:36;;;;;;;7.20;6.47;;;16.50;88.30;;;;;;4998871;28;20049;-56
2022/05/01 11:20:14;;;;;;;7.93;6.50;;;16.20;87.60;;;;;;4997386;28;20058;-52
2022/05/01 11:22:45;;;;;;;6.85;6.15;;;16.00;87.60;;;;;;4977551;28;20157;-54
2022/05/01 11:25:31;;;;;;;8.70;7.03;;;16.10;88.90;;;;;;4979801;28;20538;-50
2022/05/01 11:27:57;;;;;;;10.10;6.15;;;16.20;89.90;;;;;;4991454;28;20053;-54
2022/05/01 11:30:26;;;;;;;6.15;5.60;;;16.30;88.60;;;;;;4968866;28;20054;-54
2022/05/01 11:33:10;;;;;;;7.32;6.63;;;16.50;91.10;;;;;;5025526;28;20072;-53
2022/05/01 11:35:52;;;;;;;6.40;5.80;;;16.70;89.00;;;;;;5042300;28;20128;-53
2022/05/01 11:38:17;;;;;;;7.57;6.00;;;16.70;86.60;;;;;;5053417;28;20056;-54
2022/05/01 11:40:55;;;;;;;6.30;5.70;;;16.60;87.90;;;;;;5059466;28;20094;-53
2022/05/01 11:43:21;;;;;;;9.05;6.07;;;16.40;86.00;;;;;;5060848;28;20044;-51
2022/05/01 11:45:47;;;;;;;7.85;6.25;;;16.50;87.80;;;;;;5061601;28;20048;-52
2022/05/01 11:48:20;;;;;;;7.82;6.30;;;16.40;87.00;;;;;;5055342;28;20041;-52
2022/05/01 11:50:48;;;;;;;6.93;6.18;;;16.50;87.80;;;;;;5055629;28;20564;-52
2022/05/01 11:53:22;;;;;;;9.88;5.95;;;16.60;88.00;;;;;;5060187;28;20149;-52
2022/05/01 12:04:28;;;;;;;5.90;5.30;;;16.60;86.00;;;;;;5061171;28;20502;-54
2022/05/01 12:07:09;;;;;;;6.97;6.18;;;16.80;87.10;;;;;;5058114;28;20052;-54
2022/05/01 12:09:38;;;;;;;6.78;6.10;;;16.90;88.80;;;;;;5057526;28;20151;-53
2022/05/01 12:12:05;;;;;;;8.23;5.88;;;17.00;88.40;;;;;;5059821;28;20113;-53
2022/05/01 12:14:31;;;;;;;7.47;5.90;;;16.90;87.50;;;;;;5060334;28;20245;-55
2022/05/01 12:16:57;;;;;;;6.53;5.75;;;16.70;86.40;;;;;;5060389;28;20421;-54
2022/05/01 12:19:40;;;;;;;6.25;5.53;;;16.50;86.50;;;;;;5060315;28;20554;-48
2022/05/01 12:22:08;;;;;;;8.20;5.75;;;16.20;85.80;;;;;;5053007;28;20057;-56
2022/05/01 12:24:35;;;;;;;6.03;5.20;;;16.20;86.70;;;;;;5059868;28;20048;-54
2022/05/01 12:27:01;;;;;;;6.53;5.28;;;16.20;86.80;;;;;;5067711;28;20052;-53
2022/05/01 12:29:29;;;;;;;6.28;5.20;;;16.00;85.80;;;;;;5056946;28;20048;-58
2022/05/01 12:32:08;;;;;;;7.35;5.68;;;16.00;85.80;;;;;;5055939;28;20061;-50
2022/05/01 12:34:57;;;;;;;6.43;5.50;;;16.20;85.50;;;;;;5041828;28;20036;-51
2022/05/01 12:37:27;;;;;;;6.38;5.78;;;16.40;88.50;;;;;;5059739;28;20123;-47
2022/05/01 12:39:57;;;;;;;6.47;5.88;;;16.60;86.20;;;;;;5044882;28;20064;-53
2022/05/01 12:45:18;;;;;;;5.72;5.18;;;16.60;84.80;;;;;;5062721;28;20060;-51
2022/05/01 12:47:52;;;;;;;6.03;5.43;;;16.80;85.40;;;;;;5054058;28;20578;-51
2022/05/01 12:50:18;;;;;;;6.80;5.93;;;16.80;88.30;;;;;;5035769;28;20056;-48
2022/05/01 12:52:45;;;;;;;5.70;4.97;;;16.50;86.40;;;;;;5056608;28;20106;-55
2022/05/01 12:55:17;;;;;;;6.72;5.22;;;16.60;84.70;;;;;;5062569;28;20131;-54
2022/05/01 12:57:51;;;;;;;5.72;5.13;;;16.60;84.60;;;;;;5041342;28;20113;-54
2022/05/01 13:00:43;;;;;;;6.00;5.40;;;16.70;85.60;;;;;;5060510;28;20088;-51
2022/05/01 13:03:41;;;;;;;9.95;6.00;;;16.70;85.80;;;;;;5056867;28;20044;-49
2022/05/01 13:06:11;;;;;;;8.07;5.13;;;16.80;83.80;;;;;;5061937;28;20057;-54
2022/05/01 13:08:45;;;;;;;10.18;5.45;;;16.80;85.00;;;;;;5055666;28;20053;-54
2022/05/01 13:11:28;;;;;;;7.15;5.60;;;16.70;86.70;;;;;;5056835;28;20053;-53
2022/05/01 13:13:57;;;;;;;6.03;5.43;;;16.70;86.70;;;;;;5050177;28;20056;-51
2022/05/01 13:16:32;;;;;;;21.40;7.32;;;16.60;86.70;;;;;;5055655;28;20040;-53
2022/05/01 13:19:10;;;;;;;5.93;5.32;;;16.50;86.40;;;;;;5057112;28;20503;-56
2022/05/01 13:21:52;;;;;;;5.82;5.22;;;16.40;86.00;;;;;;5047745;28;20056;-51
2022/05/01 13:24:18;;;;;;;6.90;5.25;;;16.10;85.50;;;;;;5056850;28;20048;-55
2022/05/01 13:26:44;;;;;;;5.85;4.88;;;16.10;86.30;;;;;;5044261;28;20071;-52
2022/05/01 13:29:12;;;;;;;8.48;5.32;;;16.30;87.40;;;;;;5054415;28;20051;-53